Time;durP1;ratioP1;P1;durP2;ratioP2;P2;SDS_P1;SDS_P2;PMS_P1;PMS_P2;Temp;Humidity;BMP_temperature;BMP_pressure;BME280_temperature;BME280_humidity;BME280_pressure;Samples;Min_cycle;Max_cycle;Signal;HPM_P1;HPM_P2
2021/01/20 00:00:58;;;;;;;13.93;5.80;;;5.90;99.90;;;;;;4995761;28;20181;-77
2021/01/20 00:03:25;;;;;;;9.73;5.63;;;5.90;99.90;;;;;;4995037;28;20137;-78
2021/01/20 00:05:55;;;;;;;9.07;5.63;;;5.90;99.90;;;;;;4995167;28;20133;-78
2021/01/20 00:08:22;;;;;;;10.13;5.20;;;5.80;99.90;;;;;;4995247;28;20054;-79
2021/01/20 00:10:48;;;;;;;9.82;5.20;;;5.80;99.90;;;;;;4995434;28;20236;-77
2021/01/20 00:13:15;;;;;;;9.05;4.90;;;5.80;99.90;;;;;;4995422;28;20133;-79
2021/01/20 00:15:42;;;;;;;9.55;4.95;;;5.80;99.90;;;;;;4994900;28;20054;-81
2021/01/20 00:18:08;;;;;;;10.27;5.00;;;5.80;99.90;;;;;;4995075;28;20133;-79
2021/01/20 00:20:35;;;;;;;7.75;4.63;;;5.90;99.90;;;;;;4994867;28;20088;-77
2021/01/20 00:23:02;;;;;;;8.07;5.20;;;5.80;99.90;;;;;;4994614;28;20129;-78
2021/01/20 00:25:29;;;;;;;10.70;4.80;;;5.80;99.90;;;;;;4995088;28;20110;-77
2021/01/20 00:27:55;;;;;;;9.07;4.78;;;5.80;99.90;;;;;;4994701;28;20133;-78
2021/01/20 00:30:23;;;;;;;11.00;5.20;;;5.80;99.90;;;;;;4994370;28;20137;-78
2021/01/20 00:32:50;;;;;;;12.50;5.10;;;5.70;99.90;;;;;;4994441;28;20054;-78
2021/01/20 00:35:21;;;;;;;10.68;4.78;;;5.70;99.90;;;;;;4994578;28;20673;-78
2021/01/20 00:37:48;;;;;;;11.35;5.30;;;5.70;99.90;;;;;;4993167;28;20042;-78
2021/01/20 00:40:16;;;;;;;9.02;4.68;;;5.60;99.90;;;;;;4994519;28;20189;-77
2021/01/20 00:42:43;;;;;;;10.35;5.18;;;5.70;99.90;;;;;;4994241;28;20094;-77
2021/01/20 00:45:10;;;;;;;9.43;4.47;;;5.60;99.90;;;;;;4994468;28;20137;-79
2021/01/20 00:47:37;;;;;;;12.63;4.90;;;5.60;99.90;;;;;;4994294;28;20133;-78
2021/01/20 00:50:05;;;;;;;9.30;4.90;;;5.60;99.90;;;;;;4994459;28;20128;-80
2021/01/20 00:52:31;;;;;;;10.50;4.93;;;5.60;99.90;;;;;;4995304;28;20133;-78
2021/01/20 00:54:57;;;;;;;7.97;4.65;;;5.60;99.90;;;;;;4994504;28;20124;-79
2021/01/20 00:57:25;;;;;;;7.03;4.70;;;5.60;99.90;;;;;;4995448;28;20114;-80
2021/01/20 00:59:51;;;;;;;7.70;4.65;;;5.60;99.90;;;;;;4996332;28;20181;-79
2021/01/20 01:02:17;;;;;;;9.80;5.00;;;5.60;99.90;;;;;;4995707;28;20089;-76
2021/01/20 01:04:44;;;;;;;11.02;4.80;;;5.60;99.90;;;;;;4995474;28;20523;-80
2021/01/20 01:07:10;;;;;;;8.52;4.32;;;5.60;99.90;;;;;;4995089;28;20122;-79
2021/01/20 01:09:37;;;;;;;9.02;4.70;;;5.60;99.90;;;;;;4994206;28;20164;-79
2021/01/20 01:12:03;;;;;;;9.80;5.00;;;5.60;99.90;;;;;;4994208;28;20057;-78
2021/01/20 01:14:31;;;;;;;7.63;4.57;;;5.70;99.90;;;;;;4995414;28;20078;-78
2021/01/20 01:16:57;;;;;;;9.20;4.60;;;5.70;99.90;;;;;;4994438;28;20133;-78
2021/01/20 01:19:23;;;;;;;8.88;4.95;;;5.80;99.90;;;;;;4994271;28;20066;-78
2021/01/20 01:21:50;;;;;;;8.23;4.18;;;5.90;99.90;;;;;;4994327;28;20483;-79
2021/01/20 01:24:16;;;;;;;9.07;4.60;;;6.00;99.90;;;;;;4995100;28;20129;-79
2021/01/20 01:26:43;;;;;;;8.13;4.60;;;6.00;99.90;;;;;;4994279;28;20054;-78
2021/01/20 01:29:09;;;;;;;7.80;4.40;;;6.00;99.90;;;;;;4993450;28;20058;-77
2021/01/20 01:31:36;;;;;;;7.22;4.47;;;6.10;99.90;;;;;;4994026;28;20046;-77
2021/01/20 01:34:03;;;;;;;8.50;4.50;;;6.10;99.90;;;;;;4993880;28;20125;-78
2021/01/20 01:36:29;;;;;;;7.75;4.70;;;6.10;99.90;;;;;;4993168;28;20081;-79
2021/01/20 01:38:56;;;;;;;8.63;5.05;;;6.20;99.90;;;;;;4993599;28;20569;-75
2021/01/20 01:41:22;;;;;;;8.75;4.70;;;6.20;99.90;;;;;;4993594;28;20129;-77
2021/01/20 01:43:48;;;;;;;7.95;4.68;;;6.30;99.90;;;;;;4993986;28;20129;-79
2021/01/20 01:46:15;;;;;;;8.02;4.95;;;6.40;99.90;;;;;;4993239;28;20112;-78
2021/01/20 01:48:42;;;;;;;7.72;4.60;;;6.40;99.90;;;;;;4993062;28;20129;-78
2021/01/20 01:51:08;;;;;;;8.35;3.95;;;6.40;99.90;;;;;;4993644;28;20128;-78
2021/01/20 01:53:35;;;;;;;5.70;4.10;;;6.40;99.90;;;;;;4993566;28;20518;-78
2021/01/20 01:56:01;;;;;;;7.18;4.20;;;6.40;99.90;;;;;;4993306;28;20056;-79
2021/01/20 01:58:28;;;;;;;6.50;4.18;;;6.40;99.90;;;;;;4993227;28;20550;-79
2021/01/20 02:00:55;;;;;;;6.68;4.30;;;6.40;99.90;;;;;;4993691;28;20506;-79
2021/01/20 02:03:21;;;;;;;9.05;4.40;;;6.40;99.90;;;;;;4994375;28;20061;-79
2021/01/20 02:05:49;;;;;;;9.45;4.20;;;6.40;99.90;;;;;;4998970;28;20459;-81
2021/01/20 02:08:15;;;;;;;6.55;4.13;;;6.40;99.90;;;;;;4999329;28;20129;-80
2021/01/20 02:10:42;;;;;;;6.82;4.35;;;6.40;99.90;;;;;;4998029;28;20134;-80
2021/01/20 02:13:19;;;;;;;8.27;4.70;;;6.40;99.90;;;;;;4995571;28;20077;-78
2021/01/20 02:15:53;;;;;;;7.88;4.45;;;6.50;99.90;;;;;;4993302;28;20136;-78
2021/01/20 02:18:23;;;;;;;7.43;4.63;;;6.50;99.90;;;;;;4994389;28;20083;-78
2021/01/20 02:21:18;;;;;;;7.20;4.63;;;6.50;99.90;;;;;;4999658;28;20077;-78
2021/01/20 02:23:45;;;;;;;7.22;4.97;;;6.60;99.90;;;;;;5003504;28;20096;-79
2021/01/20 02:26:20;;;;;;;9.63;5.07;;;6.60;99.90;;;;;;5000125;28;20054;-79
2021/01/20 02:28:56;;;;;;;7.40;4.78;;;6.60;99.90;;;;;;4996822;28;20082;-80
2021/01/20 02:31:28;;;;;;;7.68;4.97;;;6.70;99.90;;;;;;5000576;28;20050;-79
2021/01/20 02:33:58;;;;;;;10.20;5.27;;;6.70;99.90;;;;;;5000155;28;20098;-79
2021/01/20 02:36:25;;;;;;;7.40;5.05;;;6.80;99.90;;;;;;4996480;28;20081;-79
2021/01/20 02:38:53;;;;;;;7.25;4.95;;;6.80;99.90;;;;;;4998450;28;20127;-79
2021/01/20 02:41:25;;;;;;;10.07;6.00;;;6.90;99.90;;;;;;4995934;28;20086;-78
2021/01/20 02:43:52;;;;;;;9.82;5.10;;;6.90;99.90;;;;;;4995007;28;20134;-77
2021/01/20 02:46:19;;;;;;;9.88;4.70;;;6.80;99.90;;;;;;4994283;28;20117;-79
2021/01/20 02:48:48;;;;;;;6.72;4.90;;;6.70;99.90;;;;;;4995391;28;20129;-78
2021/01/20 02:51:20;;;;;;;10.27;4.88;;;6.60;99.90;;;;;;4998351;28;20422;-80
2021/01/20 02:53:48;;;;;;;7.00;5.13;;;6.60;99.90;;;;;;4997734;28;20137;-81
2021/01/20 02:56:17;;;;;;;7.70;5.10;;;6.50;99.90;;;;;;4997040;28;20050;-78
2021/01/20 02:58:47;;;;;;;6.88;4.60;;;6.50;99.90;;;;;;4998160;28;20051;-79
2021/01/20 03:01:15;;;;;;;6.68;4.45;;;6.50;99.90;;;;;;5000433;28;20503;-80
2021/01/20 03:03:43;;;;;;;8.13;4.20;;;6.50;99.90;;;;;;4998958;28;20137;-79
2021/01/20 03:06:11;;;;;;;6.90;4.40;;;6.50;99.90;;;;;;4999028;28;20139;-79
2021/01/20 03:08:39;;;;;;;6.68;4.78;;;6.50;99.90;;;;;;4999378;28;20097;-79
2021/01/20 03:11:06;;;;;;;8.40;4.88;;;6.40;99.90;;;;;;4998918;28;20487;-78
2021/01/20 03:13:35;;;;;;;7.13;4.82;;;6.50;99.90;;;;;;4998960;28;20447;-79
2021/01/20 03:16:04;;;;;;;7.40;4.78;;;6.50;99.90;;;;;;4998615;28;20073;-79
2021/01/20 03:18:31;;;;;;;8.05;4.85;;;6.50;99.90;;;;;;4998590;28;20105;-79
2021/01/20 03:20:57;;;;;;;9.55;5.07;;;6.50;99.90;;;;;;4998707;28;20133;-78
2021/01/20 03:23:24;;;;;;;6.85;4.95;;;6.60;99.90;;;;;;4997680;28;20095;-79
2021/01/20 03:25:51;;;;;;;8.38;4.82;;;6.60;99.90;;;;;;4996983;28;20138;-79
2021/01/20 03:28:17;;;;;;;10.15;5.20;;;6.60;99.90;;;;;;4997535;28;20042;-78
2021/01/20 03:30:44;;;;;;;8.65;5.00;;;6.60;99.90;;;;;;4998377;28;20074;-78
2021/01/20 03:33:10;;;;;;;8.25;5.00;;;6.60;99.90;;;;;;4996839;28;20138;-79
2021/01/20 03:35:36;;;;;;;7.88;5.32;;;6.60;99.90;;;;;;4996188;28;20133;-78
2021/01/20 03:38:03;;;;;;;9.68;5.40;;;6.60;99.90;;;;;;4996425;28;20053;-81
2021/01/20 03:40:31;;;;;;;8.93;5.35;;;6.60;99.90;;;;;;4996475;28;20146;-79
2021/01/20 03:42:57;;;;;;;8.40;5.45;;;6.60;99.90;;;;;;4997657;28;20062;-82
2021/01/20 03:45:24;;;;;;;7.75;5.18;;;6.60;99.90;;;;;;4998763;28;20050;-78
2021/01/20 03:47:50;;;;;;;8.25;4.97;;;6.60;99.90;;;;;;4998684;28;20129;-79
2021/01/20 03:50:16;;;;;;;6.93;5.05;;;6.70;99.90;;;;;;4997741;28;20142;-77
2021/01/20 03:52:43;;;;;;;7.22;5.15;;;6.70;99.90;;;;;;4997052;28;20121;-79
2021/01/20 03:55:10;;;;;;;7.28;4.93;;;6.70;99.90;;;;;;4996715;28;20430;-78
2021/01/20 03:57:37;;;;;;;10.82;5.10;;;6.70;99.90;;;;;;4995316;28;20125;-78
2021/01/20 04:00:05;;;;;;;7.15;5.03;;;6.70;99.90;;;;;;4996188;28;20051;-80
2021/01/20 04:02:32;;;;;;;7.53;5.68;;;6.70;99.90;;;;;;4996913;28;20129;-79
2021/01/20 04:04:58;;;;;;;9.50;5.90;;;6.80;99.90;;;;;;4998231;28;20582;-79
2021/01/20 04:07:24;;;;;;;6.68;4.72;;;6.70;99.90;;;;;;4998259;28;20089;-79
2021/01/20 04:09:51;;;;;;;8.45;5.10;;;6.70;99.90;;;;;;4997522;28;20086;-79
2021/01/20 04:12:17;;;;;;;9.27;5.28;;;6.70;99.90;;;;;;4995500;28;20050;-78
2021/01/20 04:14:44;;;;;;;9.68;5.22;;;6.70;99.90;;;;;;4996102;28;20073;-79
2021/01/20 04:17:11;;;;;;;8.48;4.93;;;6.70;99.90;;;;;;4995845;28;20129;-78
2021/01/20 04:19:40;;;;;;;7.32;4.80;;;6.70;99.90;;;;;;4996126;28;20467;-78
2021/01/20 04:22:07;;;;;;;8.77;5.30;;;6.80;99.90;;;;;;4996463;28;20129;-79
2021/01/20 04:24:33;;;;;;;8.05;5.13;;;6.90;99.90;;;;;;4996515;28;20086;-79
2021/01/20 04:26:59;;;;;;;7.70;5.07;;;6.90;99.90;;;;;;4995290;28;20459;-78
2021/01/20 04:29:26;;;;;;;9.60;5.57;;;7.00;99.90;;;;;;4996316;28;20173;-78
2021/01/20 04:31:53;;;;;;;9.55;5.00;;;7.00;99.90;;;;;;4995447;28;20185;-78
2021/01/20 04:34:20;;;;;;;8.52;5.38;;;7.00;99.90;;;;;;4995866;28;20141;-79
2021/01/20 04:36:46;;;;;;;8.48;5.50;;;7.00;99.90;;;;;;4996135;28;20133;-79
2021/01/20 04:39:12;;;;;;;10.13;5.55;;;7.00;99.90;;;;;;4996024;28;20051;-78
2021/01/20 04:41:39;;;;;;;7.38;5.18;;;7.10;99.90;;;;;;4994648;28;20141;-78
2021/01/20 04:44:06;;;;;;;7.18;5.22;;;7.10;99.90;;;;;;4995005;28;20138;-78
2021/01/20 04:46:35;;;;;;;6.43;5.00;;;7.20;99.90;;;;;;4995233;28;20400;-79
2021/01/20 04:49:02;;;;;;;7.50;5.47;;;7.20;99.90;;;;;;4996869;28;20129;-78
2021/01/20 04:51:32;;;;;;;7.10;5.07;;;7.20;99.90;;;;;;4995583;28;20094;-78
2021/01/20 04:53:59;;;;;;;8.63;5.03;;;7.10;99.90;;;;;;4997326;28;20574;-77
2021/01/20 04:56:26;;;;;;;7.22;4.90;;;7.10;99.90;;;;;;4994165;28;20561;-78
2021/01/20 04:58:53;;;;;;;8.90;5.40;;;7.10;99.90;;;;;;4994745;28;20126;-78
2021/01/20 05:01:19;;;;;;;7.30;4.70;;;7.10;99.90;;;;;;4994472;28;20061;-78
2021/01/20 05:03:46;;;;;;;7.47;5.20;;;7.10;99.90;;;;;;4992714;28;20081;-77
2021/01/20 05:06:14;;;;;;;7.68;5.00;;;7.20;99.90;;;;;;4994211;28;20137;-78
2021/01/20 05:08:41;;;;;;;8.50;5.30;;;7.20;99.90;;;;;;4994272;28;20138;-78
2021/01/20 05:11:07;;;;;;;8.20;4.90;;;7.20;99.90;;;;;;4994320;28;20471;-78
2021/01/20 05:13:34;;;;;;;7.03;4.95;;;7.20;99.90;;;;;;4994372;28;20054;-78
2021/01/20 05:16:00;;;;;;;8.43;5.00;;;7.20;99.90;;;;;;4993462;28;20073;-78
2021/01/20 05:18:27;;;;;;;8.30;5.00;;;7.20;99.90;;;;;;4994184;28;20129;-78
2021/01/20 05:20:53;;;;;;;7.55;5.18;;;7.20;99.90;;;;;;4978831;28;20133;-76
2021/01/20 05:23:26;;;;;;;7.13;5.07;;;7.30;99.90;;;;;;4973315;28;20134;-78
2021/01/20 05:25:53;;;;;;;8.43;5.15;;;7.30;99.90;;;;;;4974109;28;20184;-77
2021/01/20 05:28:22;;;;;;;7.65;5.18;;;7.30;99.90;;;;;;4974750;28;20047;-78
2021/01/20 05:30:51;;;;;;;8.77;5.97;;;7.30;99.90;;;;;;4975326;28;20082;-78
2021/01/20 05:33:19;;;;;;;9.65;5.30;;;7.30;99.90;;;;;;4974803;28;20051;-79
2021/01/20 05:36:02;;;;;;;7.97;5.15;;;7.30;99.90;;;;;;4974089;28;20137;-78
2021/01/20 05:38:36;;;;;;;8.87;5.57;;;7.30;99.90;;;;;;4973944;28;20051;-77
2021/01/20 05:41:19;;;;;;;8.95;5.75;;;7.00;99.90;;;;;;4975100;28;20113;-79
2021/01/20 05:43:47;;;;;;;8.88;6.00;;;7.00;99.90;;;;;;5016039;22;20141;-78
2021/01/20 05:46:13;;;;;;;9.45;5.95;;;6.80;99.90;;;;;;5009499;28;20134;-80
2021/01/20 05:48:47;;;;;;;7.82;5.90;;;6.70;99.90;;;;;;5013973;28;20124;-80
2021/01/20 05:51:13;;;;;;;9.02;5.68;;;6.60;99.90;;;;;;5013099;28;20141;-80
2021/01/20 05:53:51;;;;;;;8.60;6.15;;;6.60;99.90;;;;;;5013136;28;20089;-79
2021/01/20 05:56:24;;;;;;;8.18;5.95;;;6.50;99.90;;;;;;5014035;28;20085;-79
2021/01/20 05:58:51;;;;;;;12.80;9.00;;;6.50;99.90;;;;;;5016780;28;20100;-81
2021/01/20 06:01:18;;;;;;;9.40;6.57;;;6.60;99.90;;;;;;5019062;28;20078;-79
2021/01/20 06:03:45;;;;;;;8.68;6.03;;;6.60;99.90;;;;;;5015948;28;20057;-81
2021/01/20 06:06:13;;;;;;;7.78;5.70;;;6.70;99.90;;;;;;5037060;28;20191;-81
2021/01/20 06:08:39;;;;;;;9.80;5.85;;;6.80;99.90;;;;;;5033841;28;20041;-82
2021/01/20 06:11:07;;;;;;;9.05;4.97;;;6.80;99.90;;;;;;5031006;28;20151;-81
2021/01/20 06:13:35;;;;;;;7.75;5.20;;;6.90;99.90;;;;;;5033382;28;20056;-81
2021/01/20 06:16:13;;;;;;;9.20;6.10;;;7.00;99.90;;;;;;5035701;28;20113;-81
2021/01/20 06:18:45;;;;;;;6.68;4.55;;;7.10;99.90;;;;;;5039941;28;20405;-81
2021/01/20 06:21:14;;;;;;;6.35;4.63;;;7.20;99.90;;;;;;5040440;28;20116;-79
2021/01/20 06:23:45;;;;;;;6.93;5.38;;;7.30;99.90;;;;;;5039239;28;20072;-79
2021/01/20 06:26:14;;;;;;;7.88;4.90;;;7.40;99.90;;;;;;5034173;28;20155;-80
2021/01/20 06:28:47;;;;;;;6.30;4.38;;;7.40;99.90;;;;;;5033891;28;20057;-79
2021/01/20 06:31:15;;;;;;;8.75;5.90;;;7.30;99.90;;;;;;5033299;28;20462;-79
2021/01/20 06:33:42;;;;;;;6.57;4.70;;;7.50;99.90;;;;;;5038547;28;20150;-80
2021/01/20 06:36:08;;;;;;;10.18;4.40;;;7.50;99.90;;;;;;5034666;28;20069;-80
2021/01/20 06:38:39;;;;;;;5.80;3.90;;;7.50;99.90;;;;;;5035893;28;20077;-80
2021/01/20 06:41:09;;;;;;;6.57;4.38;;;7.50;99.90;;;;;;5037910;28;20073;-79
2021/01/20 06:43:42;;;;;;;8.45;4.68;;;7.60;99.90;;;;;;5038798;28;20081;-81
2021/01/20 06:46:20;;;;;;;6.80;4.10;;;7.60;99.90;;;;;;5040728;28;20128;-80
2021/01/20 06:49:08;;;;;;;7.22;4.35;;;7.60;99.90;;;;;;5041545;28;20149;-81
2021/01/20 06:51:35;;;;;;;8.45;4.63;;;7.60;99.90;;;;;;5041550;28;20085;-82
2021/01/20 06:54:06;;;;;;;5.35;4.32;;;7.60;99.90;;;;;;5042140;28;20087;-82
2021/01/20 06:56:34;;;;;;;6.32;4.75;;;7.60;99.90;;;;;;5040858;28;20057;-80
2021/01/20 06:59:31;;;;;;;7.28;4.30;;;7.60;99.90;;;;;;5034249;28;20042;-80
2021/01/20 07:02:14;;;;;;;11.18;4.53;;;7.60;99.90;;;;;;5041061;28;20135;-81
2021/01/20 07:05:06;;;;;;;8.93;6.38;;;7.60;99.90;;;;;;5040853;28;20053;-80
2021/01/20 07:08:09;;;;;;;5.72;3.97;;;7.70;99.90;;;;;;5036847;28;20046;-80
2021/01/20 07:11:05;;;;;;;8.93;4.45;;;7.70;99.90;;;;;;5036792;28;20054;-79
2021/01/20 07:13:40;;;;;;;6.18;4.60;;;7.70;99.90;;;;;;5035861;28;20057;-79
2021/01/20 07:16:10;;;;;;;7.15;4.03;;;7.60;99.90;;;;;;5036065;28;20136;-80
2021/01/20 07:18:44;;;;;;;6.32;4.07;;;7.60;99.90;;;;;;5039365;28;20045;-80
2021/01/20 07:21:10;;;;;;;6.25;4.10;;;7.60;99.90;;;;;;5038904;28;20096;-83
2021/01/20 07:23:37;;;;;;;7.18;4.10;;;7.60;99.90;;;;;;5039243;28;20100;-80
2021/01/20 07:26:04;;;;;;;6.28;3.90;;;7.60;99.90;;;;;;5039842;28;20132;-81
2021/01/20 07:28:31;;;;;;;6.03;4.03;;;7.60;99.90;;;;;;5040329;28;20073;-83
2021/01/20 07:31:05;;;;;;;11.63;5.25;;;7.60;99.90;;;;;;5043108;28;20088;-81
2021/01/20 07:33:33;;;;;;;7.03;4.47;;;7.60;99.90;;;;;;5040076;28;20081;-79
2021/01/20 07:36:09;;;;;;;7.15;4.65;;;7.60;99.90;;;;;;5044438;28;20049;-82
2021/01/20 07:38:36;;;;;;;5.80;4.22;;;7.60;99.90;;;;;;5041257;28;20045;-81
2021/01/20 07:41:14;;;;;;;5.90;4.00;;;7.70;99.90;;;;;;5040054;28;20107;-82
2021/01/20 07:43:40;;;;;;;5.50;3.53;;;7.70;99.90;;;;;;5038545;28;20049;-80
2021/01/20 07:46:14;;;;;;;6.32;4.43;;;7.70;99.90;;;;;;5038869;28;20045;-81
2021/01/20 07:48:42;;;;;;;5.40;3.92;;;7.80;99.90;;;;;;5043713;28;20081;-82
2021/01/20 07:51:14;;;;;;;6.50;4.00;;;7.80;99.90;;;;;;5044785;28;20084;-84
2021/01/20 07:53:41;;;;;;;8.27;5.38;;;7.90;99.90;;;;;;5046528;28;20084;-81
2021/01/20 07:56:08;;;;;;;8.15;4.75;;;7.90;99.90;;;;;;5043575;28;20092;-80
2021/01/20 07:58:34;;;;;;;7.45;4.97;;;7.90;99.90;;;;;;5044712;28;20049;-83
2021/01/20 08:01:00;;;;;;;7.80;3.67;;;7.90;99.90;;;;;;5043740;28;20132;-81
2021/01/20 08:03:32;;;;;;;9.52;4.07;;;8.00;99.90;;;;;;5045405;28;20076;-83
2021/01/20 08:06:00;;;;;;;7.68;5.10;;;8.00;99.90;;;;;;5040718;28;20050;-80
2021/01/20 08:08:26;;;;;;;5.40;3.65;;;8.00;99.90;;;;;;5041052;28;20079;-81
2021/01/20 08:10:58;;;;;;;7.55;4.15;;;8.00;99.90;;;;;;5041034;28;20049;-80
2021/01/20 08:13:27;;;;;;;8.55;4.70;;;8.00;99.90;;;;;;5040820;28;20081;-81
2021/01/20 08:15:54;;;;;;;7.85;4.82;;;7.90;99.90;;;;;;5040280;28;20146;-80
2021/01/20 08:18:20;;;;;;;9.65;4.68;;;7.90;99.90;;;;;;5040094;28;20052;-81
2021/01/20 08:20:47;;;;;;;8.07;4.82;;;7.90;99.90;;;;;;5039552;28;20105;-81
2021/01/20 08:23:32;;;;;;;10.82;5.18;;;7.90;99.90;;;;;;5040492;28;20056;-81
2021/01/20 08:26:06;;;;;;;8.88;4.57;;;8.00;99.90;;;;;;5040642;28;20470;-80
2021/01/20 08:28:33;;;;;;;9.98;4.80;;;8.00;99.90;;;;;;5039996;28;20518;-81
2021/01/20 08:31:18;;;;;;;8.45;4.72;;;8.00;99.90;;;;;;5040218;28;20112;-82
2021/01/20 08:33:45;;;;;;;9.07;4.90;;;8.00;99.90;;;;;;5041219;28;20529;-82
2021/01/20 08:36:12;;;;;;;7.95;4.70;;;8.00;99.90;;;;;;5040042;28;20540;-81
2021/01/20 08:38:40;;;;;;;8.38;5.00;;;8.00;99.90;;;;;;5041222;28;20046;-80
2021/01/20 08:41:10;;;;;;;13.32;4.68;;;8.00;99.90;;;;;;5041518;28;20517;-82
2021/01/20 08:43:36;;;;;;;9.23;5.13;;;8.00;99.90;;;;;;5019840;28;629483;-80
2021/01/20 08:46:21;;;;;;;6.55;4.75;;;8.00;99.90;;;;;;5042536;28;20084;-81
2021/01/20 08:48:55;;;;;;;6.97;4.30;;;8.00;99.90;;;;;;5041137;28;20495;-82
2021/01/20 08:51:21;;;;;;;7.95;4.85;;;8.00;99.90;;;;;;5041250;28;20115;-82
2021/01/20 08:53:49;;;;;;;7.10;4.65;;;8.00;99.90;;;;;;5040515;28;20072;-82
2021/01/20 08:56:25;;;;;;;10.32;4.88;;;8.00;99.90;;;;;;5040819;28;20061;-81
2021/01/20 08:58:55;;;;;;;7.50;4.20;;;8.00;99.90;;;;;;5041118;28;20136;-82
2021/01/20 09:01:27;;;;;;;6.32;4.38;;;8.00;99.90;;;;;;5041985;28;20084;-82
2021/01/20 09:03:58;;;;;;;8.60;4.40;;;8.00;99.90;;;;;;5041341;28;20120;-82
2021/01/20 09:06:26;;;;;;;7.97;4.97;;;8.00;99.90;;;;;;5041301;28;20053;-82
2021/01/20 09:08:54;;;;;;;7.55;4.97;;;8.00;99.90;;;;;;5042255;28;20050;-82
2021/01/20 09:11:21;;;;;;;10.20;4.55;;;8.00;99.90;;;;;;5042566;28;20053;-83
2021/01/20 09:13:53;;;;;;;7.63;4.45;;;8.00;99.90;;;;;;5041597;28;20050;-83
2021/01/20 09:16:26;;;;;;;5.82;4.32;;;8.10;99.90;;;;;;5040872;28;20053;-83
2021/01/20 09:18:52;;;;;;;6.45;4.13;;;8.10;99.90;;;;;;5040490;28;20128;-79
2021/01/20 09:21:19;;;;;;;6.80;4.30;;;8.10;99.90;;;;;;5038052;28;20085;-81
2021/01/20 09:23:45;;;;;;;6.75;3.95;;;8.20;99.90;;;;;;5041205;28;20099;-79
2021/01/20 09:26:12;;;;;;;8.38;4.53;;;8.20;99.90;;;;;;5039190;28;20077;-83
2021/01/20 09:28:42;;;;;;;9.70;4.53;;;8.30;99.90;;;;;;5038575;28;20092;-80
2021/01/20 09:31:08;;;;;;;5.80;3.88;;;8.30;99.90;;;;;;5039852;28;20081;-80
2021/01/20 09:33:35;;;;;;;8.40;4.40;;;8.30;99.90;;;;;;5040895;28;20049;-81
2021/01/20 09:36:01;;;;;;;7.75;4.85;;;8.30;99.90;;;;;;5041094;28;20492;-82
2021/01/20 09:38:27;;;;;;;7.90;4.60;;;8.30;99.90;;;;;;5041530;28;20084;-82
2021/01/20 09:40:54;;;;;;;8.93;4.63;;;8.30;99.90;;;;;;5042989;28;20105;-80
2021/01/20 09:43:23;;;;;;;6.47;4.35;;;8.40;99.90;;;;;;5050461;28;20100;-81
2021/01/20 09:45:49;;;;;;;8.95;5.57;;;8.40;99.90;;;;;;5044858;28;20049;-81
2021/01/20 09:48:16;;;;;;;8.95;5.28;;;8.40;99.90;;;;;;5036170;28;20184;-81
2021/01/20 09:50:44;;;;;;;6.82;4.30;;;8.40;99.90;;;;;;5035887;28;20483;-83
2021/01/20 09:53:11;;;;;;;9.05;4.47;;;8.50;99.90;;;;;;5040209;28;20050;-80
2021/01/20 09:55:37;;;;;;;8.65;4.70;;;8.50;99.90;;;;;;5047405;28;20053;-82
2021/01/20 09:58:04;;;;;;;6.90;4.80;;;8.50;99.90;;;;;;5043212;28;20087;-81
2021/01/20 10:00:31;;;;;;;7.30;4.53;;;8.60;99.90;;;;;;5034901;28;20095;-81
2021/01/20 10:03:00;;;;;;;7.85;5.07;;;8.60;99.90;;;;;;5034702;28;20049;-82
2021/01/20 10:05:26;;;;;;;8.27;4.85;;;8.60;99.90;;;;;;5039241;28;20049;-81
2021/01/20 10:07:53;;;;;;;8.15;5.07;;;8.50;99.90;;;;;;5040132;28;20104;-81
2021/01/20 10:10:19;;;;;;;8.50;5.32;;;8.50;99.90;;;;;;5038495;28;20136;-79
2021/01/20 10:12:45;;;;;;;9.00;5.05;;;8.50;99.90;;;;;;5040224;28;20053;-79
2021/01/20 10:15:12;;;;;;;8.15;4.75;;;8.50;99.90;;;;;;5038651;28;20046;-81
2021/01/20 10:17:40;;;;;;;7.63;5.00;;;8.50;99.90;;;;;;5036560;28;20195;-81
2021/01/20 10:20:07;;;;;;;8.73;5.10;;;8.50;99.90;;;;;;5019859;28;20498;-80
2021/01/20 10:22:34;;;;;;;9.65;4.75;;;8.50;99.90;;;;;;5037739;28;20084;-79
2021/01/20 10:25:00;;;;;;;8.25;5.70;;;8.50;99.90;;;;;;5038480;28;20045;-81
2021/01/20 10:27:27;;;;;;;11.15;5.35;;;8.60;99.90;;;;;;5037393;28;20085;-80
2021/01/20 10:29:53;;;;;;;12.32;5.90;;;8.70;99.90;;;;;;5036983;28;20107;-79
2021/01/20 10:32:20;;;;;;;10.98;5.30;;;8.80;99.90;;;;;;5036497;28;20084;-80
2021/01/20 10:34:47;;;;;;;8.95;4.90;;;8.80;99.90;;;;;;5036977;28;20053;-79
2021/01/20 10:37:13;;;;;;;9.13;4.85;;;8.90;99.90;;;;;;5036132;28;20056;-80
2021/01/20 10:39:40;;;;;;;8.55;5.38;;;9.00;99.90;;;;;;5035854;28;20148;-81
2021/01/20 10:42:06;;;;;;;8.27;5.28;;;9.10;99.90;;;;;;5035954;28;20183;-80
2021/01/20 10:44:32;;;;;;;9.30;4.90;;;9.10;99.90;;;;;;5036518;28;20136;-80
2021/01/20 10:46:59;;;;;;;9.30;5.03;;;9.10;99.90;;;;;;5036250;28;20072;-81
2021/01/20 10:49:26;;;;;;;11.05;5.43;;;9.20;99.90;;;;;;5038631;28;20128;-80
2021/01/20 10:51:53;;;;;;;8.98;5.20;;;9.20;99.90;;;;;;5044120;28;20072;-79
2021/01/20 10:54:20;;;;;;;10.00;5.00;;;9.20;99.90;;;;;;5039506;28;20073;-81
2021/01/20 10:56:46;;;;;;;7.85;4.40;;;9.20;99.90;;;;;;5038737;28;20084;-80
2021/01/20 10:59:13;;;;;;;7.93;4.70;;;9.30;99.90;;;;;;5036723;28;20124;-81
2021/01/20 11:01:39;;;;;;;9.32;4.60;;;9.30;99.90;;;;;;5037965;28;20084;-80
2021/01/20 11:04:05;;;;;;;8.95;4.68;;;9.30;99.90;;;;;;5040036;28;20123;-81
2021/01/20 11:06:32;;;;;;;9.25;4.60;;;9.20;99.90;;;;;;5038223;28;20109;-81
2021/01/20 11:09:00;;;;;;;7.18;4.90;;;9.20;99.90;;;;;;5039132;28;20072;-81
2021/01/20 11:11:26;;;;;;;9.35;4.50;;;9.20;99.90;;;;;;5038560;28;20466;-80
2021/01/20 11:13:53;;;;;;;7.53;4.95;;;9.20;99.90;;;;;;5038607;28;20081;-81
2021/01/20 11:16:19;;;;;;;7.30;4.88;;;9.20;99.90;;;;;;5043080;28;20104;-81
2021/01/20 11:18:46;;;;;;;8.20;4.88;;;9.20;99.90;;;;;;5040363;28;20187;-81
2021/01/20 11:21:14;;;;;;;9.43;4.97;;;9.30;99.90;;;;;;5040904;28;20129;-83
2021/01/20 11:23:42;;;;;;;7.25;4.70;;;9.30;99.90;;;;;;5043430;28;20061;-81
2021/01/20 11:26:10;;;;;;;7.63;5.10;;;9.40;99.90;;;;;;5043701;28;20052;-81
2021/01/20 11:28:36;;;;;;;7.18;4.90;;;9.40;99.90;;;;;;5043961;28;20492;-83
2021/01/20 11:31:03;;;;;;;8.27;4.40;;;9.50;99.90;;;;;;5043853;28;20108;-83
2021/01/20 11:33:33;;;;;;;6.15;4.38;;;9.50;99.90;;;;;;5043765;28;20053;-81
2021/01/20 11:35:59;;;;;;;8.40;4.68;;;9.50;99.90;;;;;;5042901;28;20098;-81
2021/01/20 11:38:26;;;;;;;6.68;4.50;;;9.50;99.90;;;;;;5043339;28;20041;-81
2021/01/20 11:40:52;;;;;;;6.47;4.40;;;9.50;99.90;;;;;;5042763;28;20060;-82
2021/01/20 11:43:19;;;;;;;6.57;4.50;;;9.50;99.90;;;;;;5056858;22;20119;-80
2021/01/20 11:45:46;;;;;;;7.13;4.25;;;9.50;99.90;;;;;;5049751;28;20080;-80
2021/01/20 11:48:12;;;;;;;11.90;5.10;;;9.50;99.90;;;;;;5058599;28;20127;-81
2021/01/20 11:50:38;;;;;;;7.00;4.45;;;9.50;99.90;;;;;;5058478;28;20045;-80
2021/01/20 11:53:05;;;;;;;7.95;5.10;;;9.40;99.90;;;;;;5059253;28;20049;-80
2021/01/20 11:55:32;;;;;;;9.32;5.03;;;9.30;99.90;;;;;;5067644;28;20066;-79
2021/01/20 11:57:58;;;;;;;7.32;5.30;;;9.30;99.90;;;;;;5068774;28;20052;-80
2021/01/20 12:00:25;;;;;;;7.45;5.22;;;9.20;99.90;;;;;;5067249;28;20069;-80
2021/01/20 12:02:52;;;;;;;8.93;4.55;;;9.20;99.90;;;;;;5059987;28;20056;-81
2021/01/20 12:05:18;;;;;;;8.50;4.95;;;9.20;99.90;;;;;;5058611;28;20136;-80
2021/01/20 12:07:46;;;;;;;8.52;4.90;;;9.20;99.90;;;;;;5060978;28;20087;-81
2021/01/20 12:10:13;;;;;;;6.93;4.70;;;9.20;99.90;;;;;;5061463;28;20081;-80
2021/01/20 12:12:40;;;;;;;6.70;4.85;;;9.20;99.90;;;;;;5060316;28;20083;-80
2021/01/20 12:15:08;;;;;;;10.52;4.85;;;9.30;99.90;;;;;;5061303;28;20473;-80
2021/01/20 12:17:35;;;;;;;7.03;5.05;;;9.30;99.90;;;;;;5061720;28;20457;-80
2021/01/20 12:20:02;;;;;;;6.35;4.63;;;9.30;99.90;;;;;;5058035;28;20045;-78
2021/01/20 12:22:29;;;;;;;8.68;4.90;;;9.30;99.90;;;;;;5056080;28;20457;-78
2021/01/20 12:24:55;;;;;;;6.85;4.63;;;9.30;99.90;;;;;;5055597;28;20136;-78
2021/01/20 12:27:22;;;;;;;7.70;5.00;;;9.30;99.90;;;;;;5063808;28;20102;-81
2021/01/20 12:29:48;;;;;;;10.25;5.28;;;9.30;99.90;;;;;;5064416;28;20099;-81
2021/01/20 12:32:14;;;;;;;8.20;4.40;;;9.40;99.90;;;;;;5061845;28;20087;-81
2021/01/20 12:34:42;;;;;;;6.38;4.55;;;9.40;99.90;;;;;;5061364;28;20084;-80
2021/01/20 12:37:08;;;;;;;7.25;4.70;;;9.40;99.90;;;;;;5062394;28;20485;-80
2021/01/20 12:39:35;;;;;;;7.22;4.47;;;9.40;99.90;;;;;;5062559;28;20060;-79
2021/01/20 12:42:01;;;;;;;7.35;4.75;;;9.40;99.90;;;;;;5062657;28;20521;-80
2021/01/20 12:44:28;;;;;;;8.25;5.05;;;9.40;99.90;;;;;;5062362;28;20134;-81
2021/01/20 12:46:54;;;;;;;12.63;5.03;;;9.50;99.90;;;;;;5059695;28;20091;-80
2021/01/20 12:49:20;;;;;;;13.32;5.43;;;9.50;99.90;;;;;;5058822;28;20045;-81
2021/01/20 12:51:48;;;;;;;8.85;4.97;;;9.50;99.90;;;;;;5057803;28;20053;-81
2021/01/20 12:54:14;;;;;;;7.47;4.85;;;9.60;99.90;;;;;;5057814;28;20112;-79
2021/01/20 12:56:41;;;;;;;8.48;4.85;;;9.60;99.90;;;;;;5058126;28;20072;-81
2021/01/20 12:59:07;;;;;;;11.07;5.00;;;9.60;99.90;;;;;;5058820;28;20095;-80
2021/01/20 13:01:33;;;;;;;10.80;5.63;;;9.60;99.90;;;;;;5058768;28;20085;-80